Country
Station

 

Weather  for  Los Alamos  -  United States    United States

  
5 °C (41 °F)
    
 
 

Current METAR for Los Alamos is :

KLAM 111915Z AUTO 00000KT 10SM CLR 05/M12 A3017 RMK AO2 T00511119

 

This is a report for Los Alamos - United States.
 
The report was made 12 minutes ago, at 19:15 UTC .
The wind was calm.
 
The temperature was 5 °C (41 °F), with a dew-point at -12 °C (10 °F).
The atmospheric pressure was 1022 hPa (30.17 inHg).
The relative humidity was 27.9%.
 
The sky was clear.
 
The overall visibility was 16.1 kilometers (10.0 miles).
 

 
 
 
 

Country :   A   B   C   D   E   F   G   H   I   J   K   L   M   N   O   P   Q   R   S   T   U   V   W   Y   Z

 

Site Info  |  Disclaimer  |  Credits  |  Privacy
Contact us  |  Add to favorites
© 2013-2018 METARs - All rights reserved